createdAt,value
2022-11-25T00:00:40.739Z,0.22
2022-11-25T00:03:28.493Z,0.15
2022-11-25T00:06:22.149Z,0.25
2022-11-25T00:09:13.450Z,0.10
2022-11-25T00:12:01.208Z,1.00
2022-11-25T00:14:48.908Z,0.20
2022-11-25T00:17:36.684Z,0.15
2022-11-25T00:20:24.440Z,0.50
2022-11-25T00:23:12.023Z,0.20
2022-11-25T00:26:07.007Z,0.43
2022-11-25T00:28:55.120Z,0.10
2022-11-25T00:31:43.076Z,0.50
2022-11-25T00:34:31.349Z,0.50
2022-11-25T00:37:19.062Z,0.52
2022-11-25T00:40:07.429Z,0.28
2022-11-25T00:43:13.428Z,0.20
2022-11-25T00:46:01.130Z,0.20
2022-11-25T00:48:48.887Z,0.20
2022-11-25T00:51:36.590Z,0.40
2022-11-25T00:54:24.351Z,0.32
2022-11-25T00:57:12.991Z,0.30
2022-11-25T01:00:00.642Z,0.20
2022-11-25T01:02:48.623Z,0.30
2022-11-25T01:05:36.414Z,0.45
2022-11-25T01:08:24.139Z,0.50
2022-11-25T01:11:17.599Z,0.20
2022-11-25T01:14:05.596Z,0.50
2022-11-25T01:16:53.395Z,0.52
2022-11-25T01:19:42.203Z,0.50
2022-11-25T01:22:29.896Z,0.25
2022-11-25T01:25:17.596Z,0.43
2022-11-25T01:28:05.690Z,0.45
2022-11-25T01:31:04.612Z,0.70
2022-11-25T01:34:00.827Z,0.32
2022-11-25T01:36:48.773Z,0.60
2022-11-25T01:39:38.992Z,0.40
2022-11-25T01:42:30.030Z,0.50
2022-11-25T01:45:33.514Z,0.50
2022-11-25T01:48:29.322Z,0.80
2022-11-25T01:51:28.335Z,0.50
2022-11-25T01:54:21.844Z,0.40
2022-11-25T01:57:17.904Z,0.85
2022-11-25T02:00:08.096Z,0.90
2022-11-25T02:03:05.377Z,0.82
2022-11-25T02:05:52.890Z,0.57
2022-11-25T02:08:42.303Z,0.63
2022-11-25T02:11:31.273Z,0.43
2022-11-25T02:14:21.731Z,0.45
2022-11-25T02:17:09.415Z,0.43
2022-11-25T02:20:10.856Z,0.30
2022-11-25T02:23:12.621Z,0.13
2022-11-25T02:26:00.865Z,0.43
2022-11-25T02:28:49.125Z,0.60
2022-11-25T02:31:37.785Z,0.73
2022-11-25T02:34:25.750Z,0.30
2022-11-25T02:37:14.207Z,0.40
2022-11-25T02:40:02.952Z,0.45
2022-11-25T02:42:51.314Z,0.50
2022-11-25T02:46:00.412Z,0.55
2022-11-25T02:51:55.999Z,0.52
2022-11-25T02:54:43.727Z,0.45
2022-11-25T02:57:31.400Z,0.35
2022-11-25T03:00:19.524Z,0.43
2022-11-25T03:03:07.527Z,0.73
2022-11-25T03:05:55.276Z,0.32
2022-11-25T03:08:45.513Z,1.02
2022-11-25T03:11:52.638Z,0.68
2022-11-25T03:14:41.215Z,0.32
2022-11-25T03:17:28.904Z,0.43
2022-11-25T03:20:16.946Z,0.93
2022-11-25T03:23:05.353Z,0.70
2022-11-25T03:25:53.132Z,0.60
2022-11-25T03:28:40.792Z,0.57
2022-11-25T03:31:30.512Z,0.40
2022-11-25T03:34:18.333Z,0.60
2022-11-25T03:37:06.287Z,0.70
2022-11-25T03:39:54.228Z,0.60
2022-11-25T03:42:44.978Z,0.95
2022-11-25T03:45:33.159Z,0.45
2022-11-25T03:48:24.470Z,2.97
2022-11-25T03:51:12.329Z,1.88
2022-11-25T03:54:00.092Z,1.40
2022-11-25T03:56:47.866Z,0.73
2022-11-25T03:59:35.598Z,0.40
2022-11-25T04:02:23.552Z,0.60
2022-11-25T04:05:11.633Z,0.75
2022-11-25T04:07:59.710Z,0.60
2022-11-25T04:10:50.153Z,0.60
2022-11-25T04:13:40.885Z,0.45
2022-11-25T04:16:28.715Z,0.40
2022-11-25T04:19:16.659Z,0.57
2022-11-25T04:22:04.517Z,0.57
2022-11-25T04:24:55.780Z,0.60
2022-11-25T04:27:46.403Z,0.32
2022-11-25T04:30:37.511Z,0.77
2022-11-25T04:33:25.241Z,0.30
2022-11-25T04:36:13.942Z,0.63
2022-11-25T04:39:01.644Z,0.80
2022-11-25T04:41:49.863Z,0.73
2022-11-25T04:44:38.003Z,0.38
2022-11-25T04:47:26.839Z,0.85
2022-11-25T04:50:21.352Z,0.82
2022-11-25T04:53:23.197Z,0.80
2022-11-25T04:56:17.899Z,0.45
2022-11-25T04:59:28.561Z,1.10
2022-11-25T05:02:19.308Z,1.20
2022-11-25T05:05:15.278Z,0.70
2022-11-25T05:08:03.215Z,0.90
2022-11-25T05:10:51.251Z,1.10
2022-11-25T05:13:43.420Z,1.00
2022-11-25T05:16:31.123Z,1.13
2022-11-25T05:19:21.127Z,0.90
2022-11-25T05:22:15.328Z,1.08
2022-11-25T05:25:06.389Z,1.00
2022-11-25T05:27:59.052Z,0.95
2022-11-25T05:30:46.830Z,0.70
2022-11-25T05:33:35.033Z,0.70
2022-11-25T05:36:33.461Z,0.82
2022-11-25T05:39:28.860Z,0.85
2022-11-25T05:42:52.850Z,1.38
2022-11-25T05:45:41.212Z,1.33
2022-11-25T05:48:30.529Z,0.73
2022-11-25T05:51:18.168Z,1.15
2022-11-25T05:54:06.153Z,0.50
2022-11-25T05:56:59.206Z,1.40
2022-11-25T06:00:13.887Z,0.88
2022-11-25T06:03:10.491Z,1.20
2022-11-25T06:05:59.243Z,0.77
2022-11-25T06:08:47.800Z,1.10
2022-11-25T06:11:35.665Z,1.20
2022-11-25T06:14:23.368Z,1.08
2022-11-25T06:17:11.808Z,0.57
2022-11-25T06:20:08.500Z,0.95
2022-11-25T06:22:58.808Z,1.77
2022-11-25T06:25:52.456Z,1.00
2022-11-25T06:28:40.318Z,0.98
2022-11-25T06:31:28.260Z,1.48
2022-11-25T06:34:42.145Z,1.35
2022-11-25T06:37:39.734Z,1.65
2022-11-25T06:40:27.581Z,1.10
2022-11-25T06:43:15.256Z,1.88
2022-11-25T06:46:07.738Z,1.85
2022-11-25T06:48:55.595Z,1.92
2022-11-25T06:51:43.202Z,1.45
2022-11-25T06:54:31.184Z,1.40
2022-11-25T06:57:20.090Z,1.40
2022-11-25T07:00:08.472Z,1.27
2022-11-25T07:02:56.120Z,0.75
2022-11-25T07:05:43.763Z,1.52
2022-11-25T07:08:34.157Z,1.45
2022-11-25T07:11:30.734Z,1.00
2022-11-25T07:14:18.509Z,1.75
2022-11-25T07:17:11.576Z,1.20
2022-11-25T07:19:59.852Z,1.38
2022-11-25T07:22:47.558Z,1.23
2022-11-25T07:25:35.256Z,0.88
2022-11-25T07:28:22.910Z,1.02
2022-11-25T07:31:24.198Z,1.63
2022-11-25T07:37:02.280Z,0.93
2022-11-25T07:39:49.965Z,0.70
2022-11-25T07:42:40.698Z,0.82
2022-11-25T07:45:33.152Z,1.50
2022-11-25T07:48:29.224Z,1.13
2022-11-25T07:51:24.419Z,1.23
2022-11-25T07:54:13.294Z,1.05
2022-11-25T07:57:01.039Z,0.93
2022-11-25T07:59:48.741Z,0.80
2022-11-25T08:02:36.504Z,1.02
2022-11-25T08:05:24.286Z,1.52
2022-11-25T08:08:12.155Z,1.23
2022-11-25T08:10:59.832Z,1.33
2022-11-25T08:13:48.119Z,1.10
2022-11-25T08:16:35.931Z,1.40
2022-11-25T08:19:28.450Z,1.27
2022-11-25T08:22:18.914Z,0.90
2022-11-25T08:25:07.083Z,1.23
2022-11-25T08:27:54.753Z,1.00
2022-11-25T08:30:42.600Z,1.02
2022-11-25T08:33:30.185Z,1.30
2022-11-25T08:36:18.551Z,2.00
2022-11-25T08:39:29.073Z,1.52
2022-11-25T08:42:15.527Z,2.33
2022-11-25T08:45:04.387Z,3.97
2022-11-25T08:47:52.143Z,6.88
2022-11-25T08:50:47.322Z,2.28
2022-11-25T08:53:35.083Z,1.80
2022-11-25T08:56:26.215Z,1.63
2022-11-25T08:59:14.340Z,1.02
2022-11-25T09:02:02.703Z,1.33
2022-11-25T09:04:52.750Z,1.40
2022-11-25T09:07:40.754Z,2.03
2022-11-25T09:10:30.119Z,2.35
2022-11-25T09:13:17.864Z,0.93
2022-11-25T09:16:06.333Z,1.60
2022-11-25T09:18:57.010Z,1.88
2022-11-25T09:21:44.892Z,1.55
2022-11-25T09:24:32.556Z,1.60
2022-11-25T09:27:20.397Z,1.38
2022-11-25T09:30:08.616Z,1.65
2022-11-25T09:32:58.700Z,1.50
2022-11-25T09:35:47.668Z,1.25
2022-11-25T09:38:38.907Z,1.20
2022-11-25T09:41:52.418Z,1.10
2022-11-25T09:45:09.051Z,2.03
2022-11-25T09:48:08.798Z,1.02
2022-11-25T09:51:15.064Z,2.45
2022-11-25T09:54:32.805Z,2.92
2022-11-25T09:57:27.341Z,2.47
2022-11-25T10:00:22.058Z,2.65
2022-11-25T10:03:37.975Z,1.75
2022-11-25T10:06:38.558Z,1.23
2022-11-25T10:09:29.326Z,1.58
2022-11-25T10:12:26.519Z,1.08
2022-11-25T10:15:21.075Z,1.05
2022-11-25T10:18:21.762Z,2.50
2022-11-25T10:21:11.872Z,1.40
2022-11-25T10:23:59.644Z,1.33
2022-11-25T10:26:58.418Z,1.75
2022-11-25T10:29:56.128Z,1.55
2022-11-25T10:32:50.202Z,1.40
2022-11-25T10:36:00.905Z,1.73
2022-11-25T10:38:59.702Z,1.20
2022-11-25T10:41:51.449Z,0.85
2022-11-25T10:44:41.491Z,1.35
2022-11-25T10:47:34.210Z,0.82
2022-11-25T10:50:43.024Z,1.55
2022-11-25T10:53:32.947Z,1.67
2022-11-25T10:56:20.729Z,1.48
2022-11-25T10:59:27.327Z,1.77
2022-11-25T11:02:35.872Z,1.70
2022-11-25T11:05:30.156Z,2.28
2022-11-25T11:08:27.460Z,1.40
2022-11-25T11:11:20.958Z,1.52
2022-11-25T11:14:08.588Z,1.40
2022-11-25T11:16:57.559Z,1.95
2022-11-25T11:20:05.690Z,1.80
2022-11-25T11:23:09.425Z,1.42
2022-11-25T11:26:09.874Z,1.83
2022-11-25T11:28:59.032Z,2.45
2022-11-25T11:31:58.605Z,1.90
2022-11-25T11:34:49.158Z,2.28
2022-11-25T11:37:44.430Z,1.40
2022-11-25T11:40:52.012Z,1.67
2022-11-25T11:44:09.008Z,1.42
2022-11-25T11:47:11.553Z,1.60
2022-11-25T11:50:05.266Z,2.42
2022-11-25T11:52:55.630Z,3.78
2022-11-25T11:56:26.816Z,1.83
2022-11-25T11:59:47.008Z,2.20
2022-11-25T12:03:13.325Z,1.48
2022-11-25T12:06:08.037Z,2.20
2022-11-25T12:09:03.300Z,1.90
2022-11-25T12:11:56.062Z,1.90
2022-11-25T12:14:49.806Z,2.13
2022-11-25T12:17:47.398Z,2.20
2022-11-25T12:20:57.949Z,2.17
2022-11-25T12:23:55.297Z,3.38
2022-11-25T12:27:02.706Z,2.63
2022-11-25T12:29:50.305Z,1.63
2022-11-25T12:33:20.429Z,2.60
2022-11-25T12:36:13.748Z,2.63
2022-11-25T12:39:19.732Z,2.40
2022-11-25T12:42:17.031Z,2.15
2022-11-25T12:45:23.215Z,1.55
2022-11-25T12:48:13.111Z,1.73
2022-11-25T12:51:13.971Z,1.55
2022-11-25T12:54:07.583Z,1.88
2022-11-25T12:57:07.514Z,1.58
2022-11-25T13:00:17.502Z,1.70
2022-11-25T13:03:17.443Z,1.50
2022-11-25T13:06:24.358Z,2.45
2022-11-25T13:09:37.305Z,1.90
2022-11-25T13:12:55.984Z,1.85
2022-11-25T13:15:49.345Z,2.72
2022-11-25T13:18:42.274Z,1.75
2022-11-25T13:21:29.978Z,1.88
2022-11-25T13:24:40.977Z,2.33
2022-11-25T13:27:52.634Z,2.00
2022-11-25T13:30:40.382Z,2.13
2022-11-25T13:33:28.060Z,1.48
2022-11-25T13:36:21.949Z,2.15
2022-11-25T13:39:18.060Z,3.03
2022-11-25T13:42:26.275Z,2.38
2022-11-25T13:45:56.451Z,1.25
2022-11-25T13:48:46.992Z,2.90
2022-11-25T13:51:34.874Z,2.53
2022-11-25T13:54:37.486Z,3.55
2022-11-25T13:57:37.061Z,3.05
2022-11-25T14:00:35.303Z,4.43
2022-11-25T14:03:23.099Z,3.95
2022-11-25T14:06:52.908Z,3.33
2022-11-25T14:09:44.061Z,2.63
2022-11-25T14:12:43.692Z,3.35
2022-11-25T14:16:01.104Z,3.22
2022-11-25T14:19:43.256Z,3.08
2022-11-25T14:22:37.336Z,3.08
2022-11-25T14:25:45.104Z,3.28
2022-11-25T14:28:48.964Z,2.95
2022-11-25T14:31:52.099Z,3.80
2022-11-25T14:35:02.396Z,2.80
2022-11-25T14:38:07.610Z,2.75
2022-11-25T14:41:01.858Z,3.65
2022-11-25T14:43:58.461Z,3.40
2022-11-25T14:46:58.585Z,4.22
2022-11-25T14:53:09.271Z,5.10
2022-11-25T14:56:01.182Z,6.53
2022-11-25T14:58:54.578Z,8.75
2022-11-25T15:01:54.292Z,11.32
2022-11-25T15:04:42.187Z,8.98
2022-11-25T15:07:31.483Z,8.15
2022-11-25T15:11:02.288Z,7.57
2022-11-25T15:13:58.294Z,8.23
2022-11-25T15:16:46.513Z,9.52
2022-11-25T15:19:36.408Z,31.98
2022-11-25T15:22:24.862Z,16.52
2022-11-25T15:25:16.007Z,25.67
2022-11-25T15:28:18.885Z,18.20
2022-11-25T15:31:17.637Z,14.90
2022-11-25T15:34:13.874Z,10.40
2022-11-25T15:37:05.011Z,9.88
2022-11-25T15:40:29.996Z,9.70
2022-11-25T15:43:30.299Z,21.10
2022-11-25T15:46:18.785Z,21.55
2022-11-25T15:49:07.909Z,15.35
2022-11-25T15:52:14.662Z,42.22
2022-11-25T15:55:08.342Z,20.33
2022-11-25T15:58:03.365Z,22.85
2022-11-25T16:01:24.203Z,16.15
2022-11-25T16:04:21.581Z,13.25
2022-11-25T16:07:23.100Z,15.40
2022-11-25T16:10:34.177Z,13.10
2022-11-25T16:13:25.976Z,13.18
2022-11-25T16:16:31.732Z,9.73
2022-11-25T16:19:37.868Z,10.68
2022-11-25T16:22:32.431Z,15.77
2022-11-25T16:25:20.180Z,12.13
2022-11-25T16:28:21.241Z,8.90
2022-11-25T16:31:16.646Z,9.38
2022-11-25T16:34:15.645Z,12.20
2022-11-25T16:37:04.052Z,9.70
2022-11-25T16:39:51.806Z,17.38
2022-11-25T16:42:42.854Z,9.68
2022-11-25T16:45:30.780Z,6.03
2022-11-25T16:48:27.081Z,6.70
2022-11-25T16:51:20.472Z,6.20
2022-11-25T16:54:08.240Z,6.35
2022-11-25T16:56:56.023Z,7.53
2022-11-25T16:59:45.074Z,6.50
2022-11-25T17:02:33.594Z,5.82
2022-11-25T17:05:25.893Z,6.28
2022-11-25T17:11:04.364Z,9.60
2022-11-25T17:13:53.799Z,8.55
2022-11-25T17:16:43.218Z,7.63
2022-11-25T17:19:31.436Z,9.07
2022-11-25T17:22:22.418Z,9.55
2022-11-25T17:25:12.866Z,9.77
2022-11-25T17:28:00.932Z,9.10
2022-11-25T17:30:49.107Z,9.32
2022-11-25T17:33:36.989Z,10.45
2022-11-25T17:36:26.456Z,8.63
2022-11-25T17:39:15.296Z,14.10
2022-11-25T17:42:04.359Z,15.15
2022-11-25T17:44:54.254Z,9.48
2022-11-25T17:47:42.603Z,8.13
2022-11-25T17:50:30.365Z,10.40
2022-11-25T17:53:18.147Z,10.00
2022-11-25T17:56:28.650Z,9.48
2022-11-25T17:59:25.971Z,9.02
2022-11-25T18:02:22.207Z,8.70
2022-11-25T18:05:15.996Z,8.95
2022-11-25T18:08:03.866Z,7.15
2022-11-25T18:10:51.606Z,7.40
2022-11-25T18:13:40.869Z,7.75
2022-11-25T18:16:31.284Z,7.93
2022-11-25T18:19:19.185Z,8.98
2022-11-25T18:22:13.475Z,7.88
2022-11-25T18:25:05.211Z,9.80
2022-11-25T18:27:57.869Z,8.57
2022-11-25T18:30:46.437Z,9.88
2022-11-25T18:33:34.843Z,12.15
2022-11-25T18:36:25.584Z,10.32
2022-11-25T18:39:14.295Z,10.57
2022-11-25T18:42:03.778Z,10.85
2022-11-25T18:44:52.116Z,10.80
2022-11-25T18:47:39.743Z,18.10
2022-11-25T18:50:28.408Z,31.55
2022-11-25T18:53:20.959Z,22.70
2022-11-25T18:56:17.603Z,22.60
2022-11-25T18:59:14.385Z,15.95
2022-11-25T19:02:02.357Z,18.00
2022-11-25T19:04:50.186Z,23.38
2022-11-25T19:07:37.911Z,22.55
2022-11-25T19:10:29.792Z,21.10
2022-11-25T19:13:27.577Z,17.98
2022-11-25T19:16:18.530Z,18.75
2022-11-25T19:19:06.838Z,17.83
2022-11-25T19:21:54.562Z,17.23
2022-11-25T19:24:42.898Z,15.70
2022-11-25T19:27:36.419Z,17.40
2022-11-25T19:30:27.641Z,20.10
2022-11-25T19:33:40.603Z,25.77
2022-11-25T19:36:32.110Z,22.90
2022-11-25T19:39:22.424Z,28.40
2022-11-25T19:42:10.922Z,21.63
2022-11-25T19:45:03.749Z,23.45
2022-11-25T19:47:52.410Z,22.13
2022-11-25T19:50:40.738Z,24.33
2022-11-25T19:53:33.561Z,21.08
2022-11-25T19:56:27.323Z,18.60
2022-11-25T19:59:15.084Z,22.10
2022-11-25T20:02:03.001Z,25.02
2022-11-25T20:04:54.346Z,24.90
2022-11-25T20:07:44.114Z,22.00
2022-11-25T20:10:33.096Z,20.33
2022-11-25T20:13:23.298Z,22.85
2022-11-25T20:16:24.235Z,22.95
2022-11-25T20:19:18.254Z,23.80
2022-11-25T20:22:07.081Z,21.48
2022-11-25T20:25:00.612Z,18.85
2022-11-25T20:27:48.478Z,14.60
2022-11-25T20:30:36.169Z,12.20
2022-11-25T20:33:25.030Z,13.57
2022-11-25T20:36:17.268Z,20.20
2022-11-25T20:41:53.180Z,12.05
2022-11-25T20:44:41.533Z,11.25
2022-11-25T20:47:30.252Z,20.50
2022-11-25T20:50:19.904Z,11.38
2022-11-25T20:53:15.733Z,10.32
2022-11-25T20:56:03.710Z,10.52
2022-11-25T20:58:51.902Z,11.18
2022-11-25T21:01:39.667Z,10.63
2022-11-25T21:04:27.467Z,15.57
2022-11-25T21:07:16.062Z,20.35
2022-11-25T21:10:16.610Z,29.30
2022-11-25T21:13:09.761Z,27.45
2022-11-25T21:15:57.955Z,24.90
2022-11-25T21:18:46.122Z,23.42
2022-11-25T21:21:36.474Z,22.48
2022-11-25T21:24:45.306Z,24.52
2022-11-25T21:27:34.268Z,21.38
2022-11-25T21:30:25.005Z,22.73
2022-11-25T21:33:13.303Z,23.27
2022-11-25T21:36:01.110Z,20.55
2022-11-25T21:38:51.830Z,17.73
2022-11-25T21:41:39.532Z,12.55
2022-11-25T21:44:41.457Z,14.75
2022-11-25T21:47:30.284Z,12.18
2022-11-25T21:50:19.603Z,8.25
2022-11-25T21:53:07.598Z,6.25
2022-11-25T21:55:57.892Z,6.47
2022-11-25T21:58:48.191Z,7.95
2022-11-25T22:01:35.982Z,8.90
2022-11-25T22:04:24.727Z,10.70
2022-11-25T22:07:12.744Z,12.10
2022-11-25T22:10:00.589Z,12.80
2022-11-25T22:12:48.414Z,11.07
2022-11-25T22:15:36.578Z,9.50
2022-11-25T22:18:30.228Z,10.20
2022-11-25T22:21:17.947Z,13.52
2022-11-25T22:24:14.567Z,13.25
2022-11-25T22:27:03.618Z,8.93
2022-11-25T22:29:52.160Z,9.82
2022-11-25T22:32:42.392Z,7.00
2022-11-25T22:35:32.318Z,5.43
2022-11-25T22:38:20.043Z,7.28
2022-11-25T22:41:10.527Z,6.25
2022-11-25T22:44:00.648Z,7.10
2022-11-25T22:46:49.949Z,7.30
2022-11-25T22:49:44.607Z,10.15
2022-11-25T22:52:34.851Z,8.85
2022-11-25T22:55:30.926Z,12.18
2022-11-25T22:58:18.699Z,11.63
2022-11-25T23:01:06.529Z,9.82
2022-11-25T23:03:54.244Z,7.60
2022-11-25T23:06:42.000Z,7.63
2022-11-25T23:09:29.756Z,7.75
2022-11-25T23:12:18.363Z,6.47
2022-11-25T23:15:06.571Z,5.70
2022-11-25T23:17:58.035Z,6.05
2022-11-25T23:20:45.791Z,5.63
2022-11-25T23:23:33.590Z,5.35
2022-11-25T23:26:21.802Z,4.75
2022-11-25T23:29:09.595Z,5.18
2022-11-25T23:31:59.798Z,4.10
2022-11-25T23:34:50.297Z,4.88
2022-11-25T23:37:38.017Z,4.93
2022-11-25T23:40:26.977Z,4.60
2022-11-25T23:43:15.934Z,5.90
2022-11-25T23:46:03.810Z,5.95
2022-11-25T23:49:07.480Z,5.40
2022-11-25T23:51:56.475Z,5.53
